Time;durP1;ratioP1;P1;durP2;ratioP2;P2;SDS_P1;SDS_P2;PMS_P1;PMS_P2;Temp;Humidity;BMP_temperature;BMP_pressure;BME280_temperature;BME280_humidity;BME280_pressure;Samples;Min_cycle;Max_cycle;Signal;HPM_P1;HPM_P2
2023/12/03 00:02:14;;;;;;;17.13;9.63;;;-1.00;99.90;;;;;;5007973;28;20040;-72
2023/12/03 00:04:42;;;;;;;16.42;8.98;;;-1.00;99.90;;;;;;5009216;28;20554;-72
2023/12/03 00:07:08;;;;;;;17.95;9.35;;;-1.00;99.90;;;;;;5009235;28;20037;-72
2023/12/03 00:09:36;;;;;;;19.33;9.95;;;-0.90;99.90;;;;;;5008810;28;20038;-72
2023/12/03 00:12:04;;;;;;;17.60;9.20;;;-1.00;99.90;;;;;;5010614;28;20286;-72
2023/12/03 00:14:29;;;;;;;17.90;8.73;;;-0.90;99.90;;;;;;5008567;28;20026;-72
2023/12/03 00:16:58;;;;;;;19.20;9.35;;;-0.90;99.90;;;;;;5006854;28;20032;-72
2023/12/03 00:19:32;;;;;;;16.27;8.43;;;-0.90;99.90;;;;;;5011742;28;20545;-72
2023/12/03 00:22:01;;;;;;;15.52;8.25;;;-0.90;99.90;;;;;;5012520;28;20036;-72
2023/12/03 00:24:26;;;;;;;15.13;8.52;;;-0.90;99.90;;;;;;5008654;28;20442;-72
2023/12/03 00:26:53;;;;;;;13.70;7.60;;;-0.80;99.90;;;;;;5013893;28;20120;-72
2023/12/03 00:29:21;;;;;;;14.93;8.00;;;-0.80;99.90;;;;;;5009235;28;20026;-72
2023/12/03 00:31:50;;;;;;;14.18;7.32;;;-0.90;99.90;;;;;;5009335;28;20424;-72
2023/12/03 00:34:15;;;;;;;14.65;7.90;;;-0.90;99.90;;;;;;5015356;28;20022;-72
2023/12/03 00:36:41;;;;;;;17.25;8.38;;;-0.90;99.90;;;;;;5008870;28;20021;-72
2023/12/03 00:39:07;;;;;;;15.60;7.93;;;-0.90;99.90;;;;;;5009914;28;20034;-72
2023/12/03 00:41:42;;;;;;;14.48;7.55;;;-0.80;99.90;;;;;;5011964;28;20033;-72
2023/12/03 00:44:07;;;;;;;14.75;7.80;;;-0.80;99.90;;;;;;5008988;28;20057;-72
2023/12/03 00:46:39;;;;;;;14.68;7.55;;;-0.90;99.90;;;;;;5005858;28;20029;-72
2023/12/03 00:49:13;;;;;;;15.02;8.23;;;-0.90;99.90;;;;;;5008061;28;20053;-72
2023/12/03 00:51:39;;;;;;;15.15;8.05;;;-0.90;99.90;;;;;;5008616;28;20025;-72
2023/12/03 00:54:05;;;;;;;15.07;7.75;;;-0.90;99.90;;;;;;5011533;28;20404;-73
2023/12/03 00:56:33;;;;;;;12.25;6.70;;;-0.90;99.90;;;;;;5023904;28;20026;-73
2023/12/03 00:58:59;;;;;;;14.05;6.78;;;-0.90;99.90;;;;;;5008379;28;20677;-73
2023/12/03 01:01:30;;;;;;;14.98;7.75;;;-1.00;99.90;;;;;;5010458;28;20148;-73
2023/12/03 01:03:56;;;;;;;14.45;8.10;;;-1.00;99.90;;;;;;5005449;28;20029;-73
2023/12/03 01:06:21;;;;;;;16.05;8.13;;;-1.00;99.90;;;;;;5007888;28;20030;-73
2023/12/03 01:08:50;;;;;;;15.13;8.27;;;-1.00;99.90;;;;;;4987898;28;20068;-73
2023/12/03 01:11:22;;;;;;;16.13;8.55;;;-1.00;99.90;;;;;;5007519;28;20427;-73
2023/12/03 01:13:50;;;;;;;12.75;6.85;;;-1.00;99.90;;;;;;5005628;28;20092;-73
2023/12/03 01:16:25;;;;;;;12.68;7.30;;;-1.00;99.90;;;;;;5007092;28;20040;-73
2023/12/03 01:18:53;;;;;;;16.75;8.20;;;-1.00;99.90;;;;;;5009324;28;20024;-73
2023/12/03 01:21:25;;;;;;;15.75;7.50;;;-1.00;99.90;;;;;;5007561;28;20048;-73
2023/12/03 01:23:54;;;;;;;17.05;8.15;;;-1.00;99.90;;;;;;5007952;28;20061;-73
2023/12/03 01:26:31;;;;;;;13.18;6.93;;;-0.90;99.90;;;;;;5005548;28;20029;-73
2023/12/03 01:29:00;;;;;;;16.88;8.20;;;-0.90;99.90;;;;;;5005122;28;20033;-73
2023/12/03 01:31:26;;;;;;;13.38;7.88;;;-0.90;99.90;;;;;;5008722;28;20276;-73
2023/12/03 01:34:00;;;;;;;12.27;7.10;;;-0.90;99.90;;;;;;5007988;28;20078;-73
2023/12/03 01:36:32;;;;;;;12.20;6.78;;;-0.90;99.90;;;;;;5010402;28;20042;-73
2023/12/03 01:38:57;;;;;;;13.52;7.47;;;-0.80;99.90;;;;;;5006810;28;20071;-73
2023/12/03 01:41:23;;;;;;;16.00;7.63;;;-0.80;99.90;;;;;;5009820;28;20113;-73
2023/12/03 01:43:53;;;;;;;13.82;7.82;;;-0.90;99.90;;;;;;5010337;28;20038;-73
2023/12/03 01:46:23;;;;;;;14.18;7.28;;;-0.80;99.90;;;;;;5005926;28;20289;-72
2023/12/03 01:48:51;;;;;;;16.35;7.55;;;-0.80;99.90;;;;;;5007316;28;20022;-72
2023/12/03 01:51:18;;;;;;;13.90;7.43;;;-0.80;99.90;;;;;;5010903;28;20395;-72
2023/12/03 01:53:54;;;;;;;13.40;6.28;;;-0.80;99.90;;;;;;5010021;28;20030;-72
2023/12/03 01:56:20;;;;;;;11.88;6.85;;;-0.80;99.90;;;;;;5008274;28;20116;-72
2023/12/03 01:58:46;;;;;;;13.02;6.90;;;-0.80;99.90;;;;;;5007336;28;20057;-72
2023/12/03 02:01:20;;;;;;;17.80;7.63;;;-0.80;99.90;;;;;;5012542;28;20476;-73
2023/12/03 02:03:46;;;;;;;13.05;6.93;;;-0.80;99.90;;;;;;5010187;28;20040;-72
2023/12/03 02:06:11;;;;;;;12.65;6.90;;;-0.80;99.90;;;;;;5006451;28;20062;-73
2023/12/03 02:08:37;;;;;;;13.23;7.18;;;-0.80;99.90;;;;;;5008086;28;20025;-73
2023/12/03 02:11:12;;;;;;;13.93;7.65;;;-0.80;99.90;;;;;;4990279;28;20405;-73
2023/12/03 02:13:39;;;;;;;15.52;7.70;;;-0.80;99.90;;;;;;5008053;28;20030;-73
2023/12/03 02:16:08;;;;;;;14.48;7.90;;;-0.80;99.90;;;;;;5008792;28;20080;-72
2023/12/03 02:18:39;;;;;;;15.02;7.45;;;-0.80;99.90;;;;;;5008007;28;20499;-72
2023/12/03 02:21:05;;;;;;;14.65;7.78;;;-0.80;99.90;;;;;;5013709;28;20029;-72
2023/12/03 02:23:31;;;;;;;12.93;7.35;;;-0.80;99.90;;;;;;5008132;28;20030;-72
2023/12/03 02:26:03;;;;;;;15.07;8.50;;;-0.80;99.90;;;;;;5009104;28;20084;-72
2023/12/03 02:28:29;;;;;;;14.77;7.32;;;-0.80;99.90;;;;;;5009649;28;20022;-72
2023/12/03 02:30:55;;;;;;;13.98;6.90;;;-0.80;99.90;;;;;;5009471;28;20033;-71
2023/12/03 02:33:23;;;;;;;15.90;8.40;;;-0.80;99.90;;;;;;5011602;28;20022;-71
2023/12/03 02:35:49;;;;;;;15.57;7.85;;;-0.90;99.90;;;;;;5007071;28;20038;-71
2023/12/03 02:38:15;;;;;;;14.45;7.22;;;-0.80;99.90;;;;;;5013106;28;20022;-71
2023/12/03 02:40:44;;;;;;;13.50;7.07;;;-0.80;99.90;;;;;;5013981;28;20100;-71
2023/12/03 02:43:09;;;;;;;14.27;7.25;;;-0.80;99.90;;;;;;4995989;28;20091;-71
2023/12/03 02:45:38;;;;;;;14.02;7.57;;;-0.80;99.90;;;;;;5012780;28;20034;-71
2023/12/03 02:48:12;;;;;;;15.07;7.43;;;-0.80;99.90;;;;;;5012919;28;20042;-71
2023/12/03 02:50:38;;;;;;;15.48;7.97;;;-0.80;99.90;;;;;;5011638;28;20192;-72
2023/12/03 02:53:06;;;;;;;15.52;7.85;;;-0.90;99.90;;;;;;5012041;28;20105;-71
2023/12/03 02:55:35;;;;;;;18.45;8.48;;;-0.80;99.90;;;;;;5015558;28;20036;-71
2023/12/03 02:58:04;;;;;;;14.80;7.65;;;-0.80;99.90;;;;;;5014396;28;20034;-71
2023/12/03 03:00:29;;;;;;;17.25;7.85;;;-0.80;99.90;;;;;;5010539;28;20435;-71
2023/12/03 03:03:01;;;;;;;15.30;8.05;;;-0.80;99.90;;;;;;5010775;28;20095;-71
2023/12/03 03:05:26;;;;;;;14.45;7.03;;;-0.80;99.90;;;;;;5007671;28;20037;-72
2023/12/03 03:07:55;;;;;;;13.63;6.60;;;-0.90;99.90;;;;;;5009107;28;20034;-71
2023/12/03 03:10:20;;;;;;;12.90;7.72;;;-0.90;99.90;;;;;;5011979;28;20033;-71
2023/12/03 03:12:46;;;;;;;15.25;8.00;;;-0.90;99.90;;;;;;5013219;28;20069;-71
2023/12/03 03:15:11;;;;;;;14.43;7.53;;;-0.90;99.90;;;;;;5010294;28;20049;-71
2023/12/03 03:17:37;;;;;;;15.55;7.55;;;-0.90;99.90;;;;;;5008485;28;20030;-72
2023/12/03 03:20:09;;;;;;;16.30;8.07;;;-0.90;99.90;;;;;;5010190;28;20038;-73
2023/12/03 03:22:34;;;;;;;17.70;8.07;;;-0.90;99.90;;;;;;5010643;28;20030;-72
2023/12/03 03:25:03;;;;;;;14.45;7.80;;;-0.90;99.90;;;;;;5011092;28;20037;-72
2023/12/03 03:27:38;;;;;;;15.35;7.65;;;-0.90;99.90;;;;;;5009371;28;20018;-71
2023/12/03 03:30:06;;;;;;;16.45;8.23;;;-0.90;99.90;;;;;;5010431;28;20030;-71
2023/12/03 03:32:32;;;;;;;14.35;7.75;;;-1.00;99.90;;;;;;5007969;28;20578;-71
2023/12/03 03:34:57;;;;;;;16.83;7.85;;;-1.00;99.90;;;;;;5009191;28;20038;-72
2023/12/03 03:37:23;;;;;;;14.40;7.00;;;-1.10;99.90;;;;;;5011544;28;20037;-72
2023/12/03 03:39:48;;;;;;;16.30;7.82;;;-1.20;99.90;;;;;;5010284;28;20399;-72
2023/12/03 03:42:14;;;;;;;15.65;8.52;;;-1.30;99.90;;;;;;5012009;22;20089;-73
2023/12/03 03:44:46;;;;;;;15.52;7.90;;;-1.30;99.90;;;;;;4989445;28;20049;-73
2023/12/03 03:47:15;;;;;;;17.25;8.73;;;-1.40;99.90;;;;;;4988324;28;20050;-73
2023/12/03 03:49:46;;;;;;;13.23;7.38;;;-1.50;99.90;;;;;;4986104;28;20026;-73
2023/12/03 03:52:18;;;;;;;17.25;7.82;;;-1.50;99.90;;;;;;4989170;28;20143;-73
2023/12/03 03:54:43;;;;;;;15.00;7.72;;;-1.60;99.90;;;;;;4986944;28;20059;-73
2023/12/03 03:57:15;;;;;;;14.75;7.63;;;-1.60;99.90;;;;;;4989630;28;20058;-73
2023/12/03 03:59:44;;;;;;;16.40;8.13;;;-1.70;99.90;;;;;;4987820;28;20370;-73
2023/12/03 04:02:15;;;;;;;13.32;7.90;;;-1.70;99.90;;;;;;4990079;28;20030;-73
2023/12/03 04:04:50;;;;;;;15.25;7.45;;;-1.80;99.90;;;;;;4987579;28;20033;-72
2023/12/03 04:07:18;;;;;;;14.80;7.43;;;-1.70;99.90;;;;;;4986701;28;20036;-73
2023/12/03 04:09:46;;;;;;;13.27;6.68;;;-1.80;99.90;;;;;;4988916;28;20511;-73
2023/12/03 04:12:12;;;;;;;15.48;7.10;;;-1.80;99.90;;;;;;4988711;28;20018;-73
2023/12/03 04:14:38;;;;;;;16.67;7.68;;;-1.90;99.90;;;;;;4988786;28;20038;-73
2023/12/03 04:17:03;;;;;;;16.30;7.95;;;-1.90;99.90;;;;;;4989557;28;20109;-73
2023/12/03 04:19:38;;;;;;;15.30;8.18;;;-1.90;99.90;;;;;;4982939;28;20022;-73
2023/12/03 04:22:04;;;;;;;16.08;7.80;;;-2.00;99.90;;;;;;4985280;28;20026;-73
2023/12/03 04:24:29;;;;;;;17.27;8.63;;;-2.00;99.90;;;;;;4989471;28;20034;-73
2023/12/03 04:26:55;;;;;;;17.00;8.15;;;-2.00;99.90;;;;;;4987831;28;20392;-72
2023/12/03 04:29:20;;;;;;;13.75;7.30;;;-2.10;99.90;;;;;;4985320;28;20393;-72
2023/12/03 04:31:52;;;;;;;14.68;7.43;;;-2.20;99.90;;;;;;4988976;28;20018;-72
2023/12/03 04:34:17;;;;;;;14.93;7.25;;;-2.10;99.90;;;;;;4985367;28;20080;-72
2023/12/03 04:36:49;;;;;;;14.85;7.28;;;-2.10;99.90;;;;;;4988544;28;20109;-73
2023/12/03 04:39:21;;;;;;;17.08;8.18;;;-2.20;99.90;;;;;;4985098;28;20504;-73
2023/12/03 04:41:46;;;;;;;15.02;8.45;;;-2.20;99.90;;;;;;4987059;28;20034;-73
2023/12/03 04:44:12;;;;;;;17.40;8.68;;;-2.20;99.90;;;;;;4986534;28;20034;-73
2023/12/03 04:46:41;;;;;;;16.85;8.77;;;-2.20;99.90;;;;;;4987397;28;20859;-73
2023/12/03 04:49:07;;;;;;;18.75;9.35;;;-2.20;99.90;;;;;;4987718;28;20042;-73
2023/12/03 04:51:42;;;;;;;17.77;8.35;;;-2.20;99.90;;;;;;4987691;28;20128;-73
2023/12/03 04:54:13;;;;;;;14.98;8.23;;;-2.20;99.90;;;;;;4987741;28;20547;-73
2023/12/03 04:56:39;;;;;;;16.83;8.30;;;-2.20;99.90;;;;;;4986239;28;20110;-72
2023/12/03 04:59:05;;;;;;;16.48;7.43;;;-2.20;99.90;;;;;;4986029;28;20581;-72
2023/12/03 05:01:30;;;;;;;16.08;7.68;;;-2.20;99.90;;;;;;4988470;28;20417;-72
2023/12/03 05:04:02;;;;;;;18.13;8.90;;;-2.20;99.90;;;;;;4979896;28;20444;-72
2023/12/03 05:06:28;;;;;;;17.30;7.70;;;-2.30;99.90;;;;;;4983049;28;20469;-73
2023/12/03 05:08:53;;;;;;;21.42;8.02;;;-2.30;99.90;;;;;;4986307;28;20023;-73
2023/12/03 05:11:19;;;;;;;15.27;7.32;;;-2.30;99.90;;;;;;4990360;28;20030;-73
2023/12/03 05:13:44;;;;;;;17.00;8.15;;;-2.30;99.90;;;;;;4989034;28;20049;-73
2023/12/03 05:16:10;;;;;;;14.77;7.22;;;-2.40;99.90;;;;;;4987599;28;20038;-73
2023/12/03 05:18:36;;;;;;;13.63;7.13;;;-2.40;99.90;;;;;;4985031;28;20070;-73
2023/12/03 05:21:02;;;;;;;18.10;8.15;;;-2.40;99.90;;;;;;4987553;28;20038;-73
2023/12/03 05:23:31;;;;;;;16.00;7.05;;;-2.40;99.90;;;;;;4985868;28;20574;-73
2023/12/03 05:26:00;;;;;;;14.82;7.30;;;-2.40;99.90;;;;;;4986765;28;20030;-73
2023/12/03 05:28:25;;;;;;;15.02;7.32;;;-2.50;99.90;;;;;;4986785;28;20034;-73
2023/12/03 05:30:54;;;;;;;18.77;7.60;;;-2.50;99.90;;;;;;4986443;28;20440;-73
2023/12/03 05:33:23;;;;;;;15.13;7.28;;;-2.60;99.90;;;;;;4984815;28;20029;-72
2023/12/03 05:35:54;;;;;;;17.27;8.25;;;-2.60;99.90;;;;;;4985761;28;20053;-72
2023/12/03 05:38:23;;;;;;;15.55;7.00;;;-2.60;99.90;;;;;;4985759;28;20062;-72
2023/12/03 05:40:48;;;;;;;17.27;7.45;;;-2.60;99.90;;;;;;4984408;28;20046;-72
2023/12/03 05:43:17;;;;;;;13.05;6.70;;;-2.60;99.90;;;;;;4986209;28;20439;-72
2023/12/03 05:45:43;;;;;;;14.57;6.50;;;-2.60;99.90;;;;;;4985561;28;20465;-72
2023/12/03 05:48:11;;;;;;;15.00;7.68;;;-2.60;99.90;;;;;;4982536;28;20113;-72
2023/12/03 05:50:37;;;;;;;13.85;6.70;;;-2.60;99.90;;;;;;4986822;28;20030;-72
2023/12/03 05:53:06;;;;;;;18.55;7.35;;;-2.60;99.90;;;;;;4991098;28;20034;-72
2023/12/03 05:55:31;;;;;;;14.95;6.93;;;-2.60;99.90;;;;;;4992215;28;20031;-72
2023/12/03 05:57:57;;;;;;;16.30;7.28;;;-2.70;99.90;;;;;;4990812;28;20084;-72
2023/12/03 06:00:23;;;;;;;15.57;7.53;;;-2.70;99.90;;;;;;4990096;28;20042;-72
2023/12/03 06:02:52;;;;;;;16.50;7.45;;;-2.70;99.90;;;;;;4990592;28;20116;-73
2023/12/03 06:05:17;;;;;;;13.80;7.28;;;-2.70;99.90;;;;;;4982832;28;20604;-73
2023/12/03 06:07:43;;;;;;;12.82;6.55;;;-2.80;99.90;;;;;;4992527;28;20164;-73
2023/12/03 06:10:12;;;;;;;12.48;6.15;;;-2.80;99.90;;;;;;4991830;28;20465;-73
2023/12/03 06:12:37;;;;;;;12.88;6.30;;;-2.80;99.90;;;;;;4993284;28;20025;-72
2023/12/03 06:15:09;;;;;;;15.13;7.15;;;-2.80;99.90;;;;;;4989679;28;20498;-72
2023/12/03 06:17:41;;;;;;;16.10;7.07;;;-2.90;99.90;;;;;;4991106;28;20034;-72
2023/12/03 06:20:32;;;;;;;13.75;6.85;;;-2.90;99.90;;;;;;4990561;28;20030;-72
2023/12/03 06:22:58;;;;;;;16.45;7.35;;;-2.90;99.90;;;;;;4990185;28;20030;-73
2023/12/03 06:25:24;;;;;;;18.25;7.43;;;-3.00;99.90;;;;;;4988896;28;20435;-72
2023/12/03 06:27:49;;;;;;;13.82;6.88;;;-3.00;99.90;;;;;;4989706;28;20045;-72
2023/12/03 06:30:17;;;;;;;13.70;7.13;;;-3.10;99.90;;;;;;4986606;28;20031;-71
2023/12/03 06:32:42;;;;;;;14.27;6.13;;;-3.10;99.90;;;;;;4989818;28;20058;-71
2023/12/03 06:35:10;;;;;;;14.98;6.88;;;-3.20;99.90;;;;;;4988168;28;20501;-72
2023/12/03 06:37:45;;;;;;;15.07;7.40;;;-3.20;99.90;;;;;;4989538;28;20030;-72
2023/12/03 06:40:14;;;;;;;13.75;6.70;;;-3.20;99.90;;;;;;4991905;28;20026;-72
2023/12/03 06:42:49;;;;;;;14.65;7.53;;;-3.20;99.90;;;;;;4990819;28;20031;-72
2023/12/03 06:45:18;;;;;;;14.48;7.03;;;-3.20;99.90;;;;;;4989340;28;20042;-72
2023/12/03 06:47:50;;;;;;;13.57;6.60;;;-3.20;99.90;;;;;;4990072;28;20489;-72
2023/12/03 06:50:15;;;;;;;14.43;7.05;;;-3.20;99.90;;;;;;4987318;28;20136;-72
2023/12/03 06:52:45;;;;;;;14.77;6.68;;;-3.20;99.90;;;;;;4991747;28;20721;-71
2023/12/03 06:55:13;;;;;;;15.23;7.10;;;-3.20;99.90;;;;;;4990593;28;20038;-72
2023/12/03 06:57:51;;;;;;;17.77;7.68;;;-3.20;99.90;;;;;;4990119;28;20037;-72
2023/12/03 07:00:17;;;;;;;17.38;7.65;;;-3.10;99.90;;;;;;4988673;28;20084;-72
2023/12/03 07:02:52;;;;;;;13.02;6.60;;;-3.10;99.90;;;;;;4986881;28;20029;-72
2023/12/03 07:05:20;;;;;;;13.52;7.10;;;-3.10;99.90;;;;;;4988431;28;20318;-72
2023/12/03 07:07:51;;;;;;;12.13;6.45;;;-3.10;99.90;;;;;;4989393;28;20077;-72
2023/12/03 07:10:19;;;;;;;14.57;6.72;;;-3.10;99.90;;;;;;4989543;28;20045;-72
2023/12/03 07:12:51;;;;;;;14.38;6.68;;;-3.10;99.90;;;;;;4988730;28;20030;-72
2023/12/03 07:15:19;;;;;;;14.20;6.78;;;-3.10;99.90;;;;;;4983683;28;20392;-71
2023/12/03 07:17:48;;;;;;;14.52;7.03;;;-3.10;99.90;;;;;;4987719;28;20444;-72
2023/12/03 07:20:14;;;;;;;15.60;7.53;;;-3.10;99.90;;;;;;4988531;28;20030;-73
2023/12/03 07:22:39;;;;;;;16.98;7.25;;;-3.20;99.90;;;;;;4989053;28;20026;-72
2023/12/03 07:25:08;;;;;;;13.38;6.32;;;-3.20;99.90;;;;;;4990087;28;20112;-72
2023/12/03 07:27:34;;;;;;;14.30;7.18;;;-3.30;99.90;;;;;;4987106;28;20038;-72
2023/12/03 07:29:59;;;;;;;15.98;7.78;;;-3.20;99.90;;;;;;4989622;28;20499;-73
2023/12/03 07:32:25;;;;;;;13.05;6.70;;;-3.20;99.90;;;;;;4987676;28;20108;-73
2023/12/03 07:34:51;;;;;;;18.52;7.55;;;-3.20;99.90;;;;;;4989001;28;20023;-73
2023/12/03 07:37:23;;;;;;;15.48;7.30;;;-3.10;99.90;;;;;;4987187;28;20054;-73
2023/12/03 07:39:51;;;;;;;13.57;7.35;;;-3.10;99.90;;;;;;4987993;28;20034;-73
2023/12/03 07:42:17;;;;;;;14.18;7.30;;;-3.10;99.90;;;;;;4989846;28;20041;-73
2023/12/03 07:44:46;;;;;;;16.60;7.15;;;-3.00;99.90;;;;;;4975382;28;20030;-72
2023/12/03 07:47:14;;;;;;;15.35;7.07;;;-3.00;99.90;;;;;;4985689;28;20501;-73
2023/12/03 07:49:40;;;;;;;16.75;7.25;;;-3.00;99.90;;;;;;4985212;28;20038;-73
2023/12/03 07:52:12;;;;;;;16.83;7.88;;;-3.00;99.90;;;;;;4988063;28;20030;-73
2023/12/03 07:54:41;;;;;;;14.63;7.72;;;-2.90;99.90;;;;;;4986926;28;20392;-73
2023/12/03 07:57:06;;;;;;;13.73;7.63;;;-2.90;99.90;;;;;;4989634;28;20022;-73
2023/12/03 07:59:32;;;;;;;20.85;8.95;;;-2.90;99.90;;;;;;4990824;28;20480;-73
2023/12/03 08:01:58;;;;;;;16.23;7.88;;;-2.90;99.90;;;;;;4984687;28;20034;-73
2023/12/03 08:04:24;;;;;;;16.10;7.78;;;-2.80;99.90;;;;;;4984487;28;20034;-73
2023/12/03 08:06:50;;;;;;;17.30;7.60;;;-2.80;99.90;;;;;;4990162;28;20473;-73
2023/12/03 08:09:15;;;;;;;13.50;8.07;;;-2.80;99.90;;;;;;4988535;28;20511;-73
2023/12/03 08:11:44;;;;;;;18.10;8.20;;;-2.80;99.90;;;;;;4990003;28;20093;-74
2023/12/03 08:14:15;;;;;;;23.38;10.15;;;-2.80;99.90;;;;;;4987823;28;20018;-73
2023/12/03 08:16:41;;;;;;;19.80;9.27;;;-2.80;99.90;;;;;;4985211;28;20030;-73
2023/12/03 08:19:06;;;;;;;19.45;8.73;;;-2.80;99.90;;;;;;4987128;28;20089;-72
2023/12/03 08:21:36;;;;;;;20.60;9.23;;;-2.70;99.90;;;;;;4985061;28;20034;-72
2023/12/03 08:24:03;;;;;;;16.25;8.57;;;-2.70;99.90;;;;;;4985990;28;20030;-73
2023/12/03 08:26:29;;;;;;;16.75;9.13;;;-2.70;99.90;;;;;;4984591;28;20452;-73
2023/12/03 08:29:05;;;;;;;17.63;8.73;;;-2.70;99.90;;;;;;4985480;28;20029;-73
2023/12/03 08:31:30;;;;;;;20.58;8.63;;;-2.60;99.90;;;;;;4985179;28;20430;-73
2023/12/03 08:34:08;;;;;;;13.95;7.75;;;-2.60;99.90;;;;;;4988101;28;20029;-73
2023/12/03 08:36:39;;;;;;;14.43;7.20;;;-2.50;99.90;;;;;;4983032;28;20037;-73
2023/12/03 08:39:08;;;;;;;15.88;8.80;;;-2.50;99.90;;;;;;4987766;28;20515;-73
2023/12/03 08:41:37;;;;;;;14.65;7.55;;;-2.40;99.90;;;;;;4980183;28;20406;-73
2023/12/03 08:44:03;;;;;;;16.35;8.50;;;-2.40;99.90;;;;;;4980240;28;20532;-73
2023/12/03 08:46:29;;;;;;;16.20;8.88;;;-2.30;99.90;;;;;;4984689;28;20465;-74
2023/12/03 08:49:06;;;;;;;18.55;8.57;;;-2.30;99.90;;;;;;4984983;28;20547;-73
2023/12/03 08:51:36;;;;;;;18.05;9.27;;;-2.20;99.90;;;;;;4985604;28;20022;-73
2023/12/03 08:54:02;;;;;;;18.33;8.55;;;-2.20;99.90;;;;;;4987746;28;20105;-73
2023/12/03 08:56:27;;;;;;;17.45;8.45;;;-2.10;99.90;;;;;;4986223;28;20101;-74
2023/12/03 08:58:56;;;;;;;18.33;8.80;;;-2.00;99.90;;;;;;4985091;28;20398;-73
2023/12/03 09:01:24;;;;;;;12.70;7.53;;;-2.00;99.90;;;;;;4987181;28;20037;-73
2023/12/03 09:03:50;;;;;;;18.55;8.63;;;-1.90;99.90;;;;;;4983189;28;20042;-73
2023/12/03 09:06:19;;;;;;;16.42;8.60;;;-2.00;99.90;;;;;;4986720;28;20374;-74
2023/12/03 09:08:45;;;;;;;15.10;8.02;;;-2.00;99.90;;;;;;4988773;28;20057;-74
2023/12/03 09:11:10;;;;;;;22.75;9.40;;;-2.00;99.90;;;;;;4987757;28;20030;-73
2023/12/03 09:13:36;;;;;;;21.10;8.55;;;-1.90;99.90;;;;;;4987346;28;20022;-73
2023/12/03 09:16:02;;;;;;;17.73;8.48;;;-1.90;99.90;;;;;;4988929;28;20066;-73
2023/12/03 09:18:32;;;;;;;15.93;8.80;;;-1.90;99.90;;;;;;4987262;28;20034;-73
2023/12/03 09:20:58;;;;;;;19.85;8.90;;;-1.80;99.90;;;;;;4985412;28;20059;-73
2023/12/03 09:23:24;;;;;;;17.98;8.93;;;-1.80;99.90;;;;;;5000254;28;20504;-72
2023/12/03 09:25:49;;;;;;;21.48;8.40;;;-1.80;99.90;;;;;;4984411;28;20038;-73
2023/12/03 09:28:21;;;;;;;19.73;10.07;;;-1.80;99.90;;;;;;4985963;28;20034;-73
2023/12/03 09:30:46;;;;;;;20.08;9.23;;;-1.80;99.90;;;;;;4988605;28;20022;-73
2023/12/03 09:33:12;;;;;;;19.08;10.02;;;-1.70;99.90;;;;;;4984023;28;20031;-73
2023/12/03 09:35:41;;;;;;;19.67;9.43;;;-1.70;99.90;;;;;;4984653;28;20042;-73
2023/12/03 09:38:22;;;;;;;19.83;9.50;;;-1.70;99.90;;;;;;4984869;28;20034;-73
2023/12/03 09:40:49;;;;;;;17.88;9.05;;;-1.70;99.90;;;;;;4987904;28;20023;-73
2023/12/03 09:43:27;;;;;;;19.20;9.57;;;-1.70;99.90;;;;;;4985783;23;20129;-71
2023/12/03 09:45:56;;;;;;;21.20;9.93;;;-1.60;99.90;;;;;;4969440;28;20037;-71
2023/12/03 09:48:24;;;;;;;19.40;9.60;;;-1.50;99.90;;;;;;4972043;28;20026;-71
2023/12/03 09:50:54;;;;;;;20.40;10.10;;;-1.50;99.90;;;;;;4959459;28;20039;-72
2023/12/03 09:53:21;;;;;;;22.08;10.82;;;-1.40;99.90;;;;;;4957878;28;20023;-72
2023/12/03 09:55:53;;;;;;;20.33;10.77;;;-1.30;99.90;;;;;;4958907;28;20059;-71
2023/12/03 09:58:19;;;;;;;22.60;10.65;;;-1.30;99.90;;;;;;4949212;28;20051;-71
2023/12/03 10:00:45;;;;;;;20.60;11.25;;;-1.20;99.90;;;;;;4931835;28;20034;-71
2023/12/03 10:03:11;;;;;;;19.08;10.73;;;-1.10;99.90;;;;;;4951221;28;20090;-71
2023/12/03 10:05:36;;;;;;;17.73;9.75;;;-1.10;99.90;;;;;;4947710;28;20035;-71
2023/12/03 10:08:03;;;;;;;17.85;9.73;;;-1.00;99.90;;;;;;4949291;28;20035;-71
2023/12/03 10:10:35;;;;;;;20.48;9.65;;;-0.90;99.90;;;;;;4949935;28;20055;-71
2023/12/03 10:13:11;;;;;;;19.33;9.23;;;-0.90;99.90;;;;;;4949173;28;20039;-71
2023/12/03 10:15:59;;;;;;;16.23;9.48;;;-0.80;99.90;;;;;;4953089;28;20027;-71
2023/12/03 10:18:31;;;;;;;18.52;9.60;;;-0.70;99.90;;;;;;4950994;28;20027;-71
2023/12/03 10:21:18;;;;;;;18.88;9.63;;;-0.70;99.90;;;;;;4956175;28;20146;-71
2023/12/03 10:23:56;;;;;;;16.50;8.63;;;-0.60;99.90;;;;;;4950452;28;20532;-71
2023/12/03 10:26:25;;;;;;;19.25;9.90;;;-0.60;99.90;;;;;;4946628;28;20513;-71
2023/12/03 10:28:53;;;;;;;17.25;9.15;;;-0.60;99.90;;;;;;4948699;28;20386;-71
2023/12/03 10:31:32;;;;;;;18.48;8.65;;;-0.50;99.90;;;;;;4960322;28;20042;-71
2023/12/03 10:33:58;;;;;;;16.98;8.77;;;-0.50;99.90;;;;;;4954016;28;20023;-71
2023/12/03 10:36:23;;;;;;;15.57;8.45;;;-0.50;99.90;;;;;;4952655;28;20512;-71
2023/12/03 10:38:49;;;;;;;14.98;8.65;;;-0.50;99.90;;;;;;4953026;28;20031;-71
2023/12/03 10:41:17;;;;;;;17.33;8.93;;;-0.40;99.90;;;;;;4955638;28;20075;-71
2023/12/03 10:43:43;;;;;;;18.75;7.00;;;-0.40;99.90;;;;;;4953301;28;20037;-71
2023/12/03 10:46:12;;;;;;;14.18;7.40;;;-0.40;99.90;;;;;;4957706;28;20047;-71
2023/12/03 10:48:44;;;;;;;12.88;6.93;;;-0.30;99.90;;;;;;4953271;28;20023;-71
2023/12/03 10:51:16;;;;;;;15.77;7.72;;;-0.30;99.90;;;;;;4950252;28;20031;-71
2023/12/03 10:53:50;;;;;;;17.23;8.18;;;-0.20;99.90;;;;;;4957417;28;20027;-71
2023/12/03 10:56:21;;;;;;;11.73;6.90;;;-0.20;99.90;;;;;;4953861;28;20059;-71
2023/12/03 10:58:59;;;;;;;13.10;7.75;;;-0.20;99.90;;;;;;4937225;28;20027;-71
2023/12/03 11:01:28;;;;;;;20.55;8.85;;;-0.10;99.90;;;;;;4951241;28;20041;-71
2023/12/03 11:03:55;;;;;;;16.20;8.68;;;-0.10;99.90;;;;;;4957650;28;20035;-71
2023/12/03 11:06:23;;;;;;;16.48;8.80;;;0.00;99.90;;;;;;4955889;28;20027;-71
2023/12/03 11:08:51;;;;;;;17.58;9.05;;;0.00;99.90;;;;;;4957519;28;20174;-72
2023/12/03 11:11:19;;;;;;;18.13;9.32;;;0.10;99.90;;;;;;4934311;28;20099;-73
2023/12/03 11:13:51;;;;;;;18.80;9.13;;;0.10;99.90;;;;;;4949601;28;20062;-72
2023/12/03 11:16:17;;;;;;;18.63;10.82;;;0.10;99.90;;;;;;4955018;28;20039;-72
2023/12/03 11:19:06;;;;;;;16.67;8.60;;;0.10;99.90;;;;;;4935590;29;20030;-73
2023/12/03 11:21:37;;;;;;;16.65;9.45;;;0.20;99.90;;;;;;4957965;28;20154;-72
2023/12/03 11:24:41;;;;;;;18.67;9.55;;;0.20;99.90;;;;;;4957433;28;20023;-73
2023/12/03 11:27:10;;;;;;;30.67;13.13;;;0.20;99.90;;;;;;4951266;28;20051;-73
2023/12/03 11:29:56;;;;;;;64.53;24.95;;;0.10;99.90;;;;;;4947219;28;20549;-72
2023/12/03 11:32:25;;;;;;;36.40;15.90;;;0.10;99.90;;;;;;4953530;28;20486;-73
2023/12/03 11:35:01;;;;;;;30.05;13.13;;;0.10;99.90;;;;;;4949386;28;20038;-73
2023/12/03 11:37:43;;;;;;;37.22;17.48;;;0.10;99.90;;;;;;4954511;28;20035;-73
2023/12/03 11:40:14;;;;;;;25.92;12.95;;;0.10;99.90;;;;;;4948457;28;20043;-73
2023/12/03 11:42:47;;;;;;;23.50;13.10;;;0.10;99.90;;;;;;4952383;28;20513;-73
2023/12/03 11:45:25;;;;;;;;;;;0.10;99.90;;;;;;4951336;28;20035;-73
2023/12/03 11:48:06;;;;;;;28.00;13.75;;;0.10;99.90;;;;;;4951771;28;19914;-73
2023/12/03 11:50:43;;;;;;;33.65;16.05;;;0.00;99.90;;;;;;4950688;28;20035;-72
2023/12/03 11:53:12;;;;;;;27.83;14.20;;;0.00;99.90;;;;;;4934778;28;20035;-73
2023/12/03 11:55:41;;;;;;;27.92;14.18;;;0.00;99.90;;;;;;4958473;28;20115;-73
2023/12/03 11:58:08;;;;;;;30.35;14.35;;;0.00;99.90;;;;;;4962026;28;20019;-73
2023/12/03 12:00:35;;;;;;;28.65;14.57;;;0.00;99.90;;;;;;4940695;28;20034;-73
2023/12/03 12:03:02;;;;;;;28.98;14.77;;;0.00;99.90;;;;;;4951741;28;20035;-73
2023/12/03 12:05:28;;;;;;;28.88;13.93;;;0.10;99.90;;;;;;4951966;28;20097;-73
2023/12/03 12:07:57;;;;;;;25.52;14.50;;;0.10;99.90;;;;;;4955583;28;20554;-73
2023/12/03 12:10:23;;;;;;;28.67;13.75;;;0.20;99.90;;;;;;4953505;28;20046;-73
2023/12/03 12:12:49;;;;;;;30.73;14.75;;;0.20;99.90;;;;;;4955092;28;20063;-73
2023/12/03 12:15:14;;;;;;;27.48;14.05;;;0.30;99.90;;;;;;4953868;28;20113;-73
2023/12/03 12:17:43;;;;;;;26.52;14.05;;;0.40;99.90;;;;;;4953906;28;20034;-73
2023/12/03 12:20:09;;;;;;;25.33;12.73;;;0.40;99.90;;;;;;4947865;28;20027;-73
2023/12/03 12:22:37;;;;;;;28.40;14.25;;;0.50;99.90;;;;;;4943595;28;20513;-73
2023/12/03 12:25:04;;;;;;;22.33;12.02;;;0.70;99.90;;;;;;4957361;28;20035;-73
2023/12/03 12:27:30;;;;;;;23.90;12.98;;;0.80;99.90;;;;;;4953063;28;20042;-73
2023/12/03 12:29:56;;;;;;;21.88;11.93;;;1.00;99.90;;;;;;4930276;28;20038;-73
2023/12/03 12:32:21;;;;;;;24.23;12.45;;;1.00;99.90;;;;;;4945430;28;20311;-73
2023/12/03 12:34:47;;;;;;;22.80;12.77;;;1.20;99.90;;;;;;4954312;28;20113;-73
2023/12/03 12:37:13;;;;;;;23.42;12.70;;;1.20;99.90;;;;;;4949004;28;20035;-73
2023/12/03 12:39:38;;;;;;;22.45;12.32;;;1.30;99.90;;;;;;4947150;28;20493;-73
2023/12/03 12:42:04;;;;;;;20.75;12.13;;;1.40;99.90;;;;;;4948446;28;20039;-73
2023/12/03 12:44:43;;;;;;;24.30;12.35;;;1.30;99.90;;;;;;4947968;28;20043;-73
2023/12/03 12:47:10;;;;;;;19.63;11.23;;;1.40;99.90;;;;;;4949041;28;20106;-73